Time;durP1;ratioP1;P1;durP2;ratioP2;P2;SDS_P1;SDS_P2;PMS_P1;PMS_P2;Temp;Humidity;BMP_temperature;BMP_pressure;BME280_temperature;BME280_humidity;BME280_pressure;Samples;Min_cycle;Max_cycle;Signal;HPM_P1;HPM_P2
2021/12/28 00:01:13;;;;;;;10.70;3.40;;;8.50;99.90;;;;;;477291;249;27543;-69
2021/12/28 00:03:14;;;;;;;14.23;3.70;;;8.60;99.90;;;;;;477297;249;27975;-69
2021/12/28 00:05:15;;;;;;;19.03;3.70;;;8.50;99.90;;;;;;477330;249;27911;-69
2021/12/28 00:07:17;;;;;;;12.60;4.30;;;8.50;99.90;;;;;;477355;249;28490;-69
2021/12/28 00:09:18;;;;;;;16.13;4.77;;;8.60;99.90;;;;;;477311;249;28483;-69
2021/12/28 00:11:19;;;;;;;22.30;3.97;;;8.50;99.90;;;;;;477358;249;28543;-69
2021/12/28 00:13:20;;;;;;;16.83;4.27;;;8.50;99.90;;;;;;477316;249;28471;-69
2021/12/28 00:19:43;;;;;;;16.67;4.67;;;8.50;99.90;;;;;;477309;249;27934;-69
2021/12/28 00:21:44;;;;;;;15.27;4.07;;;8.50;99.90;;;;;;477355;249;28025;-69
2021/12/28 00:23:45;;;;;;;20.43;3.90;;;8.50;99.90;;;;;;477350;249;28216;-69
2021/12/28 00:25:46;;;;;;;25.20;4.03;;;8.50;99.90;;;;;;477353;249;28347;-69
2021/12/28 00:27:48;;;;;;;18.50;3.80;;;8.50;99.90;;;;;;477353;249;27974;-69
2021/12/28 00:29:49;;;;;;;17.77;4.20;;;8.50;99.90;;;;;;477261;249;27900;-69
2021/12/28 00:31:50;;;;;;;17.93;4.07;;;8.50;99.90;;;;;;477348;249;27889;-69
2021/12/28 00:33:53;;;;;;;18.00;3.70;;;8.60;99.90;;;;;;477339;249;27987;-69
2021/12/28 00:35:53;;;;;;;15.93;3.47;;;8.50;99.90;;;;;;477294;249;27825;-69
2021/12/28 00:37:54;;;;;;;16.37;3.63;;;8.60;99.90;;;;;;477356;249;27995;-69
2021/12/28 00:39:55;;;;;;;13.27;3.97;;;8.60;99.90;;;;;;477346;249;28017;-69
2021/12/28 00:41:56;;;;;;;13.87;3.63;;;8.60;99.90;;;;;;477342;249;27896;-69
2021/12/28 00:43:58;;;;;;;19.63;4.13;;;8.60;99.90;;;;;;477348;247;27920;-69
2021/12/28 00:45:59;;;;;;;20.50;3.77;;;8.60;99.90;;;;;;477333;249;28043;-69
2021/12/28 00:48:00;;;;;;;17.77;3.30;;;8.60;99.90;;;;;;477354;249;29533;-69
2021/12/28 00:50:01;;;;;;;20.50;3.90;;;8.60;99.90;;;;;;477350;249;28109;-69
2021/12/28 00:52:03;;;;;;;13.47;4.40;;;8.60;99.90;;;;;;477367;249;28606;-69
2021/12/28 00:54:04;;;;;;;7.97;2.93;;;8.60;99.90;;;;;;477357;249;28311;-70
2021/12/28 00:56:05;;;;;;;11.53;3.20;;;8.60;99.90;;;;;;477342;249;28036;-69
2021/12/28 00:58:06;;;;;;;19.10;3.37;;;8.60;99.90;;;;;;477351;249;28097;-69
2021/12/28 01:00:08;;;;;;;10.10;3.10;;;8.60;99.90;;;;;;477341;249;28092;-69
2021/12/28 01:02:09;;;;;;;12.97;3.50;;;8.60;99.90;;;;;;477359;249;27546;-69
2021/12/28 01:04:10;;;;;;;10.07;3.07;;;8.60;99.90;;;;;;477344;249;28118;-69
2021/12/28 01:06:11;;;;;;;15.03;3.10;;;8.60;99.90;;;;;;477339;249;27721;-69
2021/12/28 01:08:13;;;;;;;16.90;3.70;;;8.60;99.90;;;;;;477335;249;28211;-69
2021/12/28 01:10:14;;;;;;;7.97;3.00;;;8.60;99.90;;;;;;477339;249;27853;-69
2021/12/28 01:12:15;;;;;;;8.83;3.27;;;8.60;99.90;;;;;;477353;249;27896;-70
2021/12/28 01:14:16;;;;;;;14.17;3.10;;;8.60;99.90;;;;;;477336;249;28117;-69
2021/12/28 01:16:18;;;;;;;15.40;3.70;;;8.60;99.90;;;;;;477352;249;28459;-69
2021/12/28 01:18:19;;;;;;;10.37;3.00;;;8.60;99.90;;;;;;477327;249;28507;-69
2021/12/28 01:20:20;;;;;;;10.80;3.10;;;8.60;99.90;;;;;;477337;249;28572;-69
2021/12/28 01:22:21;;;;;;;6.27;2.73;;;8.60;99.90;;;;;;477338;249;28025;-69
2021/12/28 01:24:24;;;;;;;10.23;2.97;;;8.60;99.90;;;;;;477334;249;27660;-69
2021/12/28 01:26:24;;;;;;;19.33;3.57;;;8.60;99.90;;;;;;477277;249;28056;-69
2021/12/28 01:28:25;;;;;;;14.40;2.60;;;8.60;99.90;;;;;;477357;249;27984;-69
2021/12/28 01:30:26;;;;;;;8.73;2.80;;;8.60;99.90;;;;;;477337;249;28213;-69
2021/12/28 01:32:28;;;;;;;9.03;3.10;;;8.60;99.90;;;;;;477338;249;28153;-69
2021/12/28 01:34:29;;;;;;;8.77;2.83;;;8.50;99.90;;;;;;477326;249;28023;-69
2021/12/28 01:36:30;;;;;;;8.40;2.57;;;8.50;99.90;;;;;;477340;249;28019;-70
2021/12/28 01:38:31;;;;;;;8.53;2.60;;;8.50;99.90;;;;;;477350;249;28186;-69
2021/12/28 01:40:33;;;;;;;8.73;3.23;;;8.50;99.90;;;;;;477330;249;27912;-69
2021/12/28 01:42:34;;;;;;;11.83;3.20;;;8.60;99.90;;;;;;477346;249;27572;-69
2021/12/28 01:44:35;;;;;;;15.23;3.00;;;8.50;99.90;;;;;;477352;249;28156;-69
2021/12/28 01:46:36;;;;;;;7.87;2.37;;;8.50;99.90;;;;;;477317;249;28609;-69
2021/12/28 01:48:38;;;;;;;12.67;2.43;;;8.60;99.90;;;;;;477350;249;28586;-69
2021/12/28 01:50:39;;;;;;;10.20;2.60;;;8.60;99.90;;;;;;477365;249;28569;-69
2021/12/28 01:52:40;;;;;;;8.33;2.67;;;8.60;99.90;;;;;;477353;249;28106;-69
2021/12/28 01:54:42;;;;;;;8.80;2.80;;;8.50;99.90;;;;;;477368;249;28002;-69
2021/12/28 01:56:44;;;;;;;8.73;2.50;;;8.40;99.90;;;;;;477365;249;27932;-69
2021/12/28 01:58:44;;;;;;;4.90;2.37;;;8.50;99.90;;;;;;477318;249;27956;-69
2021/12/28 02:00:45;;;;;;;8.73;2.13;;;8.40;99.90;;;;;;477370;249;28095;-69
2021/12/28 02:02:46;;;;;;;6.87;2.30;;;8.40;99.90;;;;;;477329;249;28040;-69
2021/12/28 02:04:48;;;;;;;5.23;2.20;;;8.40;99.90;;;;;;477346;249;28113;-69
2021/12/28 02:06:49;;;;;;;7.33;2.20;;;8.30;99.90;;;;;;477350;247;28149;-69
2021/12/28 02:08:50;;;;;;;14.10;3.00;;;8.30;99.90;;;;;;477317;248;28004;-69
2021/12/28 02:10:51;;;;;;;8.83;2.50;;;8.40;99.90;;;;;;477358;249;27852;-69
2021/12/28 02:12:53;;;;;;;11.30;2.90;;;8.30;99.90;;;;;;477347;249;28503;-69
2021/12/28 02:14:54;;;;;;;9.07;2.50;;;8.30;99.90;;;;;;477344;249;28306;-69
2021/12/28 02:16:55;;;;;;;11.13;3.30;;;8.40;99.90;;;;;;477336;249;28602;-69
2021/12/28 02:18:56;;;;;;;6.27;2.47;;;8.30;99.90;;;;;;477319;249;28720;-69
2021/12/28 02:20:58;;;;;;;9.20;2.80;;;8.30;99.90;;;;;;477345;249;27981;-69
2021/12/28 02:22:59;;;;;;;4.77;2.33;;;8.30;99.90;;;;;;477348;249;27936;-69
2021/12/28 02:25:00;;;;;;;3.87;1.90;;;8.30;99.90;;;;;;477342;249;27965;-69
2021/12/28 02:27:01;;;;;;;5.20;2.70;;;8.30;99.90;;;;;;477339;249;28234;-69
2021/12/28 02:29:03;;;;;;;8.33;2.40;;;8.30;99.90;;;;;;477349;249;27928;-70
2021/12/28 02:31:04;;;;;;;4.00;1.90;;;8.30;99.90;;;;;;477351;249;27789;-69
2021/12/28 02:33:05;;;;;;;14.20;2.40;;;8.30;99.90;;;;;;477310;249;28067;-69
2021/12/28 02:35:06;;;;;;;8.07;2.20;;;8.30;99.90;;;;;;477327;249;27731;-69
2021/12/28 02:37:08;;;;;;;4.10;2.10;;;8.30;99.90;;;;;;477343;249;28009;-69
2021/12/28 02:39:09;;;;;;;5.60;1.70;;;8.30;99.90;;;;;;477329;249;28112;-69
2021/12/28 02:41:10;;;;;;;6.70;2.20;;;8.30;99.90;;;;;;477332;249;28012;-69
2021/12/28 02:43:12;;;;;;;3.80;2.10;;;8.30;99.90;;;;;;477338;249;28154;-69
2021/12/28 02:45:13;;;;;;;9.97;2.53;;;8.30;99.90;;;;;;477329;249;27935;-69
2021/12/28 02:47:14;;;;;;;9.77;2.53;;;8.30;99.90;;;;;;477308;249;28051;-69
2021/12/28 02:49:15;;;;;;;6.17;2.80;;;8.40;99.90;;;;;;477337;249;28492;-70
2021/12/28 02:51:16;;;;;;;6.40;2.70;;;8.40;99.90;;;;;;477336;249;28568;-69
2021/12/28 02:53:18;;;;;;;7.10;2.57;;;8.30;99.90;;;;;;477355;249;28498;-69
2021/12/28 02:55:19;;;;;;;5.63;3.17;;;8.30;99.90;;;;;;477311;249;28344;-69
2021/12/28 02:57:20;;;;;;;7.17;2.37;;;8.30;99.90;;;;;;477344;249;28433;-69
2021/12/28 02:59:21;;;;;;;7.30;2.43;;;8.30;99.90;;;;;;477329;249;27561;-69
2021/12/28 03:01:23;;;;;;;8.80;2.30;;;8.20;99.90;;;;;;477326;249;28039;-69
2021/12/28 03:03:24;;;;;;;5.77;2.40;;;8.20;99.90;;;;;;477318;246;28071;-69
2021/12/28 03:05:25;;;;;;;9.63;2.63;;;8.10;99.90;;;;;;477336;249;27997;-69
2021/12/28 03:07:26;;;;;;;7.67;2.57;;;8.10;99.90;;;;;;477324;249;28111;-69
2021/12/28 03:09:28;;;;;;;6.23;2.47;;;8.10;99.90;;;;;;477127;249;28088;-69
2021/12/28 03:11:29;;;;;;;6.47;2.50;;;8.10;99.90;;;;;;477332;249;27715;-69
2021/12/28 03:13:30;;;;;;;5.83;2.73;;;8.10;99.90;;;;;;477335;249;28006;-69
2021/12/28 03:15:31;;;;;;;7.13;2.50;;;8.10;99.90;;;;;;477313;249;27902;-69
2021/12/28 03:17:33;;;;;;;8.32;2.97;;;8.10;99.90;;;;;;477303;249;27817;-69
2021/12/28 03:19:34;;;;;;;8.23;2.30;;;8.00;99.90;;;;;;477322;249;27585;-69
2021/12/28 03:21:35;;;;;;;5.07;1.97;;;8.10;99.90;;;;;;477323;249;28181;-69
2021/12/28 03:23:36;;;;;;;7.73;2.20;;;8.10;99.90;;;;;;477238;249;28540;-69
2021/12/28 03:25:38;;;;;;;4.90;2.50;;;8.00;99.90;;;;;;477317;249;28283;-69
2021/12/28 03:27:39;;;;;;;6.77;2.70;;;8.00;99.90;;;;;;477324;249;28365;-69
2021/12/28 03:29:40;;;;;;;4.17;2.30;;;8.00;99.90;;;;;;477329;249;28119;-69
2021/12/28 03:31:41;;;;;;;5.07;2.53;;;8.00;99.90;;;;;;477333;249;28660;-70
2021/12/28 03:33:43;;;;;;;7.13;2.10;;;8.00;99.90;;;;;;477362;249;28028;-69
2021/12/28 03:35:44;;;;;;;4.67;2.50;;;8.00;99.90;;;;;;477336;249;28008;-69
2021/12/28 03:37:45;;;;;;;4.90;2.27;;;8.00;99.90;;;;;;477347;249;28075;-69
2021/12/28 03:39:46;;;;;;;9.33;2.80;;;7.90;99.90;;;;;;477359;249;27980;-69
2021/12/28 03:41:48;;;;;;;3.90;2.17;;;7.90;99.90;;;;;;477340;249;28452;-69
2021/12/28 03:43:49;;;;;;;2.80;2.00;;;7.90;99.90;;;;;;477361;249;28101;-69
2021/12/28 03:45:50;;;;;;;4.40;1.67;;;7.90;99.90;;;;;;477323;249;27813;-69
2021/12/28 03:47:51;;;;;;;4.80;1.90;;;7.90;99.90;;;;;;477397;249;27633;-69
2021/12/28 03:49:53;;;;;;;7.57;2.20;;;8.00;99.90;;;;;;477376;249;28025;-69
2021/12/28 03:51:54;;;;;;;2.60;1.93;;;8.00;99.90;;;;;;477354;249;28108;-69
2021/12/28 03:53:55;;;;;;;4.63;1.60;;;8.00;99.90;;;;;;477356;249;27793;-70
2021/12/28 03:55:56;;;;;;;8.10;2.00;;;8.00;99.90;;;;;;477329;249;28123;-69
2021/12/28 03:58:00;;;;;;;3.60;1.70;;;7.90;99.90;;;;;;477366;249;28584;-70
2021/12/28 03:59:59;;;;;;;2.00;1.57;;;7.90;99.90;;;;;;477270;249;28430;-69
2021/12/28 04:02:00;;;;;;;7.40;1.73;;;8.00;99.90;;;;;;477363;249;29429;-69
2021/12/28 04:04:01;;;;;;;4.20;2.47;;;8.00;99.90;;;;;;477376;246;28832;-70
2021/12/28 04:06:07;;;;;;;1.70;1.60;;;8.00;99.90;;;;;;477338;249;29514;-69
2021/12/28 04:08:04;;;;;;;5.20;2.40;;;8.00;99.90;;;;;;477134;249;27524;-69
2021/12/28 04:10:07;;;;;;;2.30;2.10;;;8.00;99.90;;;;;;477351;249;28129;-69
2021/12/28 04:12:06;;;;;;;3.33;1.97;;;8.00;99.90;;;;;;477260;249;27591;-69
2021/12/28 04:14:08;;;;;;;2.10;1.90;;;7.90;99.90;;;;;;477340;249;27996;-69
2021/12/28 04:16:09;;;;;;;3.80;1.57;;;8.00;99.90;;;;;;477334;249;27899;-69
2021/12/28 04:18:10;;;;;;;3.50;1.73;;;8.00;99.90;;;;;;477338;247;27537;-69
2021/12/28 04:20:11;;;;;;;3.37;1.73;;;8.00;99.90;;;;;;477345;249;27803;-69
2021/12/28 04:22:13;;;;;;;3.50;1.70;;;8.00;99.90;;;;;;477338;249;29215;-69
2021/12/28 04:24:14;;;;;;;3.65;2.00;;;8.00;99.90;;;;;;477360;249;28266;-69
2021/12/28 04:26:15;;;;;;;4.00;1.90;;;7.90;99.90;;;;;;477337;249;27555;-69
2021/12/28 04:28:16;;;;;;;4.00;1.70;;;8.00;99.90;;;;;;477341;249;29036;-69
2021/12/28 04:30:18;;;;;;;2.47;1.90;;;8.00;99.90;;;;;;477328;249;28621;-69
2021/12/28 04:32:19;;;;;;;5.10;1.70;;;8.00;99.90;;;;;;477330;246;29312;-69
2021/12/28 04:34:20;;;;;;;3.03;1.60;;;8.00;99.90;;;;;;477322;249;28637;-69
2021/12/28 04:36:22;;;;;;;2.90;1.80;;;8.00;99.90;;;;;;477318;249;29232;-69
2021/12/28 04:38:23;;;;;;;3.13;1.90;;;8.00;99.90;;;;;;477325;249;27993;-69
2021/12/28 04:40:24;;;;;;;1.93;1.40;;;8.00;99.90;;;;;;477361;249;28225;-69
2021/12/28 04:42:27;;;;;;;3.53;1.40;;;8.00;99.90;;;;;;477326;249;27916;-69
2021/12/28 04:44:26;;;;;;;1.63;1.53;;;8.00;99.90;;;;;;477237;249;28157;-69
2021/12/28 04:46:28;;;;;;;1.70;1.60;;;8.00;99.90;;;;;;477331;249;27982;-69
2021/12/28 04:48:29;;;;;;;1.80;1.33;;;8.00;99.90;;;;;;477335;249;28877;-69
2021/12/28 04:50:37;;;;;;;3.77;1.67;;;7.90;99.90;;;;;;477349;249;28369;-69
2021/12/28 04:52:35;;;;;;;1.87;1.47;;;7.90;99.90;;;;;;477006;249;28980;-69
2021/12/28 04:54:33;;;;;;;2.20;1.53;;;7.90;99.90;;;;;;477164;249;28143;-70
2021/12/28 04:56:34;;;;;;;1.40;1.30;;;7.90;99.90;;;;;;477314;249;27914;-69
2021/12/28 04:58:35;;;;;;;1.37;1.27;;;7.90;99.90;;;;;;477327;249;28007;-69
2021/12/28 05:00:36;;;;;;;1.97;1.20;;;7.90;99.90;;;;;;477337;249;28036;-69
2021/12/28 05:02:38;;;;;;;1.70;1.20;;;7.90;99.90;;;;;;477325;249;29462;-69
2021/12/28 05:04:39;;;;;;;1.17;1.13;;;7.90;99.90;;;;;;477242;249;28118;-69
2021/12/28 05:06:40;;;;;;;2.53;1.50;;;7.90;99.90;;;;;;477319;247;29214;-69
2021/12/28 05:08:41;;;;;;;2.20;1.43;;;7.90;99.90;;;;;;477318;249;28214;-69
2021/12/28 05:10:43;;;;;;;1.70;1.53;;;7.90;99.90;;;;;;477347;249;28524;-69
2021/12/28 05:12:44;;;;;;;2.50;1.43;;;7.90;99.90;;;;;;477345;249;28033;-69
2021/12/28 05:14:45;;;;;;;2.03;1.23;;;7.90;99.90;;;;;;477306;249;28100;-69
2021/12/28 05:16:46;;;;;;;1.42;1.20;;;7.80;99.90;;;;;;477334;249;27539;-69
2021/12/28 05:18:48;;;;;;;1.50;1.40;;;7.80;99.90;;;;;;477333;249;27618;-69
2021/12/28 05:20:49;;;;;;;2.40;1.30;;;7.80;99.90;;;;;;477328;249;27924;-69
2021/12/28 05:22:50;;;;;;;2.30;1.33;;;7.80;99.90;;;;;;477333;249;28211;-69
2021/12/28 05:24:51;;;;;;;1.30;1.20;;;7.80;99.90;;;;;;477320;249;28453;-69
2021/12/28 05:26:53;;;;;;;1.53;1.17;;;7.80;99.90;;;;;;477344;249;29274;-69
2021/12/28 05:28:54;;;;;;;1.83;1.30;;;7.80;99.90;;;;;;477302;246;28168;-69
2021/12/28 05:30:55;;;;;;;2.40;1.40;;;7.70;99.90;;;;;;477332;249;28158;-69
2021/12/28 05:32:56;;;;;;;1.40;1.30;;;7.80;99.90;;;;;;477334;249;29322;-69
2021/12/28 05:34:58;;;;;;;2.57;1.37;;;7.80;99.90;;;;;;477314;249;28366;-69
2021/12/28 05:36:59;;;;;;;1.43;1.20;;;7.80;99.90;;;;;;477325;249;29480;-69
2021/12/28 05:39:00;;;;;;;1.00;1.00;;;7.80;99.90;;;;;;477334;249;28690;-69
2021/12/28 05:41:01;;;;;;;1.23;1.12;;;7.80;99.90;;;;;;477348;249;28004;-69
2021/12/28 05:43:03;;;;;;;1.20;1.20;;;7.80;99.90;;;;;;477333;249;27516;-69
2021/12/28 05:45:04;;;;;;;2.55;1.80;;;7.80;99.90;;;;;;477317;249;28896;-69
2021/12/28 05:47:05;;;;;;;2.92;1.20;;;7.70;99.90;;;;;;477363;249;27654;-70
2021/12/28 05:49:06;;;;;;;1.03;1.03;;;7.70;99.90;;;;;;477346;249;27645;-69
2021/12/28 05:51:08;;;;;;;1.67;1.30;;;7.80;99.90;;;;;;477355;249;27918;-69
2021/12/28 05:53:09;;;;;;;1.80;1.30;;;7.70;99.90;;;;;;477358;249;28031;-69
2021/12/28 05:55:10;;;;;;;3.60;1.20;;;7.70;99.90;;;;;;477351;249;28597;-69
2021/12/28 05:57:11;;;;;;;2.30;1.37;;;7.80;99.90;;;;;;477368;249;28908;-69
2021/12/28 05:59:13;;;;;;;1.27;1.07;;;7.70;99.90;;;;;;477325;249;28544;-69
2021/12/28 06:01:14;;;;;;;0.90;0.90;;;7.70;99.90;;;;;;477280;249;28593;-69
2021/12/28 06:03:15;;;;;;;2.10;1.13;;;7.80;99.90;;;;;;477252;249;29392;-69
2021/12/28 06:05:16;;;;;;;1.10;1.00;;;7.70;99.90;;;;;;477246;249;28716;-69
2021/12/28 06:07:18;;;;;;;1.10;1.10;;;7.80;99.90;;;;;;477336;249;27567;-69
2021/12/28 06:09:19;;;;;;;1.20;1.20;;;7.70;99.90;;;;;;477294;249;27529;-69
2021/12/28 06:11:21;;;;;;;1.27;1.13;;;7.80;99.90;;;;;;477338;249;27583;-69
2021/12/28 06:13:23;;;;;;;1.10;1.10;;;7.80;99.90;;;;;;477297;249;27751;-69
2021/12/28 06:15:23;;;;;;;1.70;1.60;;;7.80;99.90;;;;;;477260;249;28973;-69
2021/12/28 06:17:24;;;;;;;1.30;1.20;;;7.80;99.90;;;;;;477423;249;28146;-69
2021/12/28 06:19:25;;;;;;;1.10;1.00;;;7.70;99.90;;;;;;477361;249;27629;-69
2021/12/28 06:21:30;;;;;;;1.00;1.00;;;7.80;99.90;;;;;;477348;249;28018;-70
2021/12/28 06:23:28;;;;;;;1.30;1.20;;;7.80;99.90;;;;;;477176;249;28574;-69
2021/12/28 06:25:29;;;;;;;1.50;1.10;;;7.80;99.90;;;;;;477339;249;28583;-69
2021/12/28 06:27:30;;;;;;;1.10;1.10;;;7.80;99.90;;;;;;477337;249;28491;-69
2021/12/28 06:29:31;;;;;;;1.23;1.20;;;7.80;99.90;;;;;;477329;249;28967;-69
2021/12/28 06:31:33;;;;;;;1.55;1.45;;;7.80;99.90;;;;;;477317;249;28910;-70
2021/12/28 06:33:34;;;;;;;1.30;1.20;;;7.80;99.90;;;;;;477350;249;27650;-69
2021/12/28 06:35:35;;;;;;;1.43;1.30;;;7.80;99.90;;;;;;477332;249;27621;-69
2021/12/28 06:37:36;;;;;;;1.33;1.33;;;7.80;99.90;;;;;;477341;249;27817;-69
2021/12/28 06:39:38;;;;;;;1.13;1.13;;;7.90;99.90;;;;;;477355;249;27894;-69
2021/12/28 06:41:39;;;;;;;2.70;1.10;;;7.90;99.90;;;;;;477314;248;28232;-69
2021/12/28 06:43:40;;;;;;;1.23;0.93;;;7.90;99.90;;;;;;477342;249;28095;-70
2021/12/28 06:45:41;;;;;;;1.33;0.93;;;7.90;99.90;;;;;;477313;249;28900;-69
2021/12/28 06:47:43;;;;;;;1.10;1.00;;;7.90;99.90;;;;;;477332;249;28365;-69
2021/12/28 06:49:45;;;;;;;1.00;1.00;;;7.90;99.90;;;;;;477330;249;29445;-69
2021/12/28 06:51:45;;;;;;;1.30;1.20;;;8.00;99.90;;;;;;477253;249;28901;-69
2021/12/28 06:53:47;;;;;;;1.60;1.03;;;8.00;99.90;;;;;;477339;249;28865;-69
2021/12/28 06:55:48;;;;;;;0.90;0.90;;;8.00;99.90;;;;;;477306;249;28689;-69
2021/12/28 06:57:49;;;;;;;1.30;1.20;;;8.00;99.90;;;;;;477349;249;27543;-69
2021/12/28 06:59:50;;;;;;;1.30;1.20;;;8.00;99.90;;;;;;477345;249;27891;-69
2021/12/28 07:01:51;;;;;;;1.07;1.00;;;8.00;99.90;;;;;;477315;249;27664;-70
2021/12/28 07:03:53;;;;;;;1.37;1.10;;;8.10;99.90;;;;;;477353;249;28567;-69
2021/12/28 07:05:54;;;;;;;1.30;1.20;;;8.00;99.90;;;;;;477349;249;28024;-69
2021/12/28 07:07:55;;;;;;;1.10;1.10;;;8.10;99.90;;;;;;477346;249;27897;-69
2021/12/28 07:09:56;;;;;;;1.03;1.03;;;8.10;99.90;;;;;;477362;249;27976;-69
2021/12/28 07:11:58;;;;;;;1.10;1.10;;;8.10;99.90;;;;;;477344;249;28151;-69
2021/12/28 07:13:59;;;;;;;1.40;1.30;;;8.10;99.90;;;;;;477423;249;28132;-69
2021/12/28 07:16:00;;;;;;;1.00;1.00;;;8.10;99.90;;;;;;477379;249;28005;-69
2021/12/28 07:18:01;;;;;;;0.90;0.90;;;8.10;99.90;;;;;;477375;249;28042;-69
2021/12/28 07:20:03;;;;;;;1.03;1.03;;;8.10;99.90;;;;;;477378;249;28016;-69
2021/12/28 07:22:04;;;;;;;1.00;1.00;;;8.10;99.90;;;;;;477356;249;28117;-69
2021/12/28 07:24:05;;;;;;;2.20;1.00;;;8.10;99.90;;;;;;477328;249;28148;-69
2021/12/28 07:26:06;;;;;;;1.30;1.20;;;8.10;99.90;;;;;;477340;249;28367;-68
2021/12/28 07:28:08;;;;;;;1.10;0.93;;;8.20;99.90;;;;;;484500;244;29176;-68
2021/12/28 07:30:09;;;;;;;1.00;0.90;;;8.10;99.90;;;;;;483850;245;28384;-69
2021/12/28 07:32:10;;;;;;;2.07;1.07;;;8.20;99.90;;;;;;475085;249;28453;-70
2021/12/28 07:34:11;;;;;;;1.30;1.07;;;8.20;99.90;;;;;;484933;245;27773;-70
2021/12/28 07:36:13;;;;;;;0.90;0.90;;;8.20;99.90;;;;;;484861;245;27923;-69
2021/12/28 07:38:14;;;;;;;0.90;0.90;;;8.20;99.90;;;;;;484902;245;28251;-69
2021/12/28 07:40:15;;;;;;;0.80;0.80;;;8.20;99.90;;;;;;485002;245;27882;-70
2021/12/28 07:42:16;;;;;;;1.30;1.20;;;8.20;99.90;;;;;;485025;245;27854;-69
2021/12/28 07:44:18;;;;;;;1.60;1.10;;;8.20;99.90;;;;;;485061;245;27874;-70
2021/12/28 07:46:19;;;;;;;1.50;1.40;;;8.30;99.90;;;;;;485107;245;28017;-70
2021/12/28 07:48:20;;;;;;;1.30;1.30;;;8.40;99.90;;;;;;485085;245;27995;-70
2021/12/28 07:50:21;;;;;;;1.40;1.30;;;8.40;99.90;;;;;;485048;245;27764;-70
2021/12/28 07:52:23;;;;;;;1.00;1.00;;;8.40;99.90;;;;;;485076;245;27799;-70
2021/12/28 07:54:24;;;;;;;1.13;1.10;;;8.40;99.90;;;;;;484993;245;27933;-70
2021/12/28 07:56:25;;;;;;;1.20;1.20;;;8.40;99.90;;;;;;485017;245;27891;-70
2021/12/28 07:58:26;;;;;;;1.27;1.10;;;8.50;99.90;;;;;;485057;245;28029;-70
2021/12/28 08:00:28;;;;;;;1.27;1.20;;;8.50;99.90;;;;;;485049;245;27761;-70
2021/12/28 08:02:29;;;;;;;1.13;1.13;;;8.50;99.90;;;;;;485040;245;27627;-70
2021/12/28 08:04:30;;;;;;;1.40;1.30;;;8.50;99.90;;;;;;485052;245;29251;-69
2021/12/28 08:06:31;;;;;;;1.30;1.20;;;8.60;99.90;;;;;;485297;245;28389;-70
2021/12/28 08:08:33;;;;;;;0.90;0.90;;;8.60;99.90;;;;;;475536;250;28417;-70
2021/12/28 08:10:34;;;;;;;0.80;0.80;;;8.60;99.90;;;;;;473668;251;28669;-70
2021/12/28 08:12:35;;;;;;;1.00;1.00;;;8.60;99.90;;;;;;466852;255;28431;-70
2021/12/28 08:14:36;;;;;;;1.13;1.03;;;8.70;99.90;;;;;;472848;251;27577;-69
2021/12/28 08:16:38;;;;;;;1.00;1.00;;;8.70;99.90;;;;;;472809;251;27760;-70
2021/12/28 08:18:39;;;;;;;1.10;1.10;;;8.70;99.90;;;;;;468325;254;28034;-69
2021/12/28 08:20:40;;;;;;;0.90;0.90;;;8.70;99.90;;;;;;474934;250;28014;-69
2021/12/28 08:22:41;;;;;;;1.10;1.10;;;8.70;99.90;;;;;;474933;250;28037;-70
2021/12/28 08:24:43;;;;;;;1.10;1.10;;;8.80;99.90;;;;;;474948;250;28093;-70
2021/12/28 08:26:44;;;;;;;1.20;1.20;;;8.80;99.90;;;;;;474944;250;28423;-69
2021/12/28 08:28:45;;;;;;;1.30;1.20;;;8.80;99.90;;;;;;474908;250;27566;-69
2021/12/28 08:30:46;;;;;;;1.30;1.30;;;8.90;99.90;;;;;;474877;250;27994;-70
2021/12/28 08:32:48;;;;;;;1.90;1.80;;;8.90;99.90;;;;;;474932;250;28175;-70
2021/12/28 08:34:49;;;;;;;1.43;1.43;;;8.90;99.90;;;;;;474958;250;28059;-69
2021/12/28 08:36:50;;;;;;;2.30;2.20;;;8.90;99.90;;;;;;474959;250;28007;-70
2021/12/28 08:38:51;;;;;;;1.50;1.50;;;8.90;99.90;;;;;;474925;250;27763;-70
2021/12/28 08:40:53;;;;;;;1.70;1.60;;;8.90;99.90;;;;;;474959;250;27864;-70
2021/12/28 08:42:54;;;;;;;1.70;1.50;;;9.00;99.90;;;;;;474862;250;27740;-70
2021/12/28 08:44:55;;;;;;;1.20;1.20;;;9.00;99.90;;;;;;474951;250;28629;-70
2021/12/28 08:46:56;;;;;;;1.20;1.03;;;9.00;99.90;;;;;;474935;250;28432;-69
2021/12/28 08:48:58;;;;;;;1.03;1.03;;;9.00;99.90;;;;;;474949;250;28561;-69
2021/12/28 08:50:59;;;;;;;1.20;1.20;;;9.00;99.90;;;;;;474918;250;27990;-70
2021/12/28 08:53:00;;;;;;;1.20;1.20;;;9.00;99.90;;;;;;474939;250;28334;-70
2021/12/28 08:55:01;;;;;;;1.30;1.20;;;9.10;99.90;;;;;;474868;250;28183;-70
2021/12/28 08:57:03;;;;;;;1.90;1.37;;;9.00;99.90;;;;;;474935;250;27867;-70
2021/12/28 08:59:04;;;;;;;1.50;1.30;;;9.10;99.90;;;;;;474947;250;27903;-70
2021/12/28 09:01:06;;;;;;;1.30;1.30;;;9.10;99.90;;;;;;474921;250;27707;-70
2021/12/28 09:03:07;;;;;;;1.07;1.07;;;9.10;99.90;;;;;;474919;250;28111;-70
2021/12/28 09:05:08;;;;;;;1.00;1.00;;;9.10;99.90;;;;;;474921;250;28091;-70
2021/12/28 09:07:09;;;;;;;1.00;1.00;;;9.20;99.90;;;;;;474893;250;28070;-70
2021/12/28 09:09:10;;;;;;;1.23;1.13;;;9.20;99.90;;;;;;474914;250;27922;-70
2021/12/28 09:11:11;;;;;;;1.20;1.20;;;9.20;99.90;;;;;;474900;250;28087;-70
2021/12/28 09:13:14;;;;;;;1.10;1.10;;;9.20;99.90;;;;;;474930;250;28020;-69
2021/12/28 09:15:14;;;;;;;0.90;0.90;;;9.20;99.90;;;;;;474882;250;28155;-70
2021/12/28 09:17:15;;;;;;;1.27;1.10;;;9.20;99.90;;;;;;474928;250;28043;-73
2021/12/28 09:19:16;;;;;;;1.20;1.20;;;9.30;99.90;;;;;;474881;250;28025;-73
2021/12/28 09:21:18;;;;;;;1.00;1.00;;;9.20;99.90;;;;;;474930;250;27955;-73
2021/12/28 09:23:19;;;;;;;1.10;1.00;;;9.30;99.90;;;;;;474901;250;28454;-73
2021/12/28 09:25:20;;;;;;;0.90;0.90;;;9.30;99.90;;;;;;474941;250;28267;-73
2021/12/28 09:27:21;;;;;;;1.00;1.00;;;9.30;99.90;;;;;;474947;250;28538;-74
2021/12/28 09:29:25;;;;;;;1.30;1.23;;;9.30;99.90;;;;;;474911;250;28468;-74
2021/12/28 09:31:24;;;;;;;1.27;1.20;;;9.30;99.90;;;;;;474689;250;28435;-74
2021/12/28 09:33:25;;;;;;;1.10;1.10;;;9.30;99.90;;;;;;474921;250;27941;-74
2021/12/28 09:35:26;;;;;;;1.20;1.10;;;9.30;99.90;;;;;;474932;250;28040;-74
2021/12/28 09:37:28;;;;;;;1.10;1.10;;;9.30;99.90;;;;;;474896;250;27743;-74
2021/12/28 09:39:29;;;;;;;1.23;1.23;;;9.40;99.90;;;;;;474910;250;28129;-74
2021/12/28 09:41:30;;;;;;;1.40;1.40;;;9.40;99.90;;;;;;474911;250;27664;-74
2021/12/28 09:43:32;;;;;;;2.23;2.13;;;9.40;99.90;;;;;;474888;250;27670;-74
2021/12/28 09:45:33;;;;;;;3.63;3.33;;;9.40;99.90;;;;;;474865;250;28142;-74
2021/12/28 09:47:34;;;;;;;2.73;2.63;;;9.50;99.90;;;;;;474945;250;28168;-74
2021/12/28 09:49:35;;;;;;;2.50;2.40;;;9.40;99.90;;;;;;474908;250;28040;-73
2021/12/28 09:51:37;;;;;;;3.83;2.00;;;9.40;99.90;;;;;;474916;250;28035;-73
2021/12/28 09:53:38;;;;;;;1.60;1.60;;;9.40;99.90;;;;;;474921;250;27530;-73
2021/12/28 09:55:39;;;;;;;2.10;2.00;;;9.40;99.90;;;;;;474874;250;28104;-73
2021/12/28 09:57:40;;;;;;;1.80;1.70;;;9.40;99.90;;;;;;474932;250;27623;-73
2021/12/28 09:59:41;;;;;;;1.50;1.40;;;9.40;99.90;;;;;;474934;250;28117;-74
2021/12/28 10:01:43;;;;;;;1.60;1.50;;;9.40;99.90;;;;;;474912;250;28548;-74
2021/12/28 10:03:44;;;;;;;1.40;1.40;;;9.40;99.90;;;;;;474929;250;28145;-74
2021/12/28 10:05:45;;;;;;;1.43;1.40;;;9.50;99.90;;;;;;474916;250;28471;-73
2021/12/28 10:07:46;;;;;;;1.37;1.27;;;9.40;99.90;;;;;;474883;250;29105;-74
2021/12/28 10:09:48;;;;;;;1.47;1.30;;;9.50;99.90;;;;;;474937;250;28520;-73
2021/12/28 10:11:49;;;;;;;1.40;1.30;;;9.50;99.90;;;;;;474920;248;28264;-73
2021/12/28 10:13:50;;;;;;;1.30;1.30;;;9.60;99.90;;;;;;474930;250;28013;-73
2021/12/28 10:15:51;;;;;;;1.10;1.10;;;9.60;99.90;;;;;;474931;250;28140;-74
2021/12/28 10:17:53;;;;;;;1.20;1.03;;;9.60;99.90;;;;;;474956;250;27512;-73
2021/12/28 10:19:54;;;;;;;1.10;1.10;;;9.60;99.90;;;;;;474884;250;28041;-73
2021/12/28 10:21:55;;;;;;;1.10;1.10;;;9.60;99.90;;;;;;474932;250;28025;-74
2021/12/28 10:23:56;;;;;;;0.93;0.93;;;9.70;99.90;;;;;;474926;250;28036;-74
2021/12/28 10:25:58;;;;;;;0.90;0.90;;;9.70;99.90;;;;;;474941;250;28042;-74
2021/12/28 10:27:59;;;;;;;1.13;1.13;;;9.70;99.90;;;;;;474940;250;28020;-73
2021/12/28 10:30:00;;;;;;;1.53;1.10;;;9.70;99.90;;;;;;474981;250;28038;-73
2021/12/28 10:32:01;;;;;;;1.07;1.03;;;9.70;99.90;;;;;;474895;250;28123;-74
2021/12/28 10:34:03;;;;;;;1.00;1.00;;;9.70;99.90;;;;;;474955;250;28000;-73
2021/12/28 10:36:04;;;;;;;1.00;0.90;;;9.80;99.90;;;;;;474953;250;28098;-73
2021/12/28 10:38:05;;;;;;;0.87;0.87;;;9.80;99.90;;;;;;474945;250;28418;-73
2021/12/28 10:40:06;;;;;;;1.30;1.30;;;9.80;99.90;;;;;;474896;250;28646;-73
2021/12/28 10:42:08;;;;;;;1.10;1.10;;;9.80;99.90;;;;;;474910;250;28579;-73